Time;durP1;ratioP1;P1;durP2;ratioP2;P2;SDS_P1;SDS_P2;PMS_P1;PMS_P2;Temp;Humidity;BMP_temperature;BMP_pressure;BME280_temperature;BME280_humidity;BME280_pressure;Samples;Min_cycle;Max_cycle;Signal;HPM_P1;HPM_P2
2023/10/19 00:01:18;;;;;;;26.27;9.13;;;;;;;9.98;78.19;98194.87;4468305;32;20458;-76
2023/10/19 00:03:49;;;;;;;16.98;8.93;;;;;;;9.97;78.11;98188.81;4469590;32;20123;-76
2023/10/19 00:06:19;;;;;;;16.58;9.13;;;;;;;9.99;78.53;98181.63;4469763;32;20076;-76
2023/10/19 00:08:47;;;;;;;15.95;9.25;;;;;;;10.01;78.76;98182.34;4469525;32;20387;-76
2023/10/19 00:11:25;;;;;;;23.80;9.00;;;;;;;9.97;79.75;98173.13;4469664;32;20115;-76
2023/10/19 00:13:57;;;;;;;20.27;9.48;;;;;;;10.01;80.13;98177.09;4469687;32;20096;-76
2023/10/19 00:16:30;;;;;;;18.55;9.20;;;;;;;10.00;80.20;98172.81;4476938;32;20159;-76
2023/10/19 00:18:59;;;;;;;20.23;9.77;;;;;;;9.84;81.09;98173.50;4485236;32;20076;-76
2023/10/19 00:21:27;;;;;;;17.83;9.65;;;;;;;9.93;81.31;98162.13;4485131;31;20092;-76
2023/10/19 00:23:57;;;;;;;17.40;9.30;;;;;;;9.90;81.09;98166.81;4485053;31;20136;-76
2023/10/19 00:26:29;;;;;;;16.70;9.90;;;;;;;9.95;81.28;98162.00;4485180;31;20089;-76
2023/10/19 00:28:57;;;;;;;18.17;9.90;;;;;;;9.88;81.67;98158.31;4471795;32;20077;-76
2023/10/19 00:31:27;;;;;;;17.62;10.05;;;;;;;9.97;81.41;98152.19;4469508;32;20115;-76
2023/10/19 00:33:55;;;;;;;17.48;10.27;;;;;;;9.87;82.16;98154.03;4469389;32;20854;-76
2023/10/19 00:36:23;;;;;;;17.85;9.98;;;;;;;9.70;82.85;98150.44;4469084;32;20115;-76
2023/10/19 00:38:56;;;;;;;20.48;10.45;;;;;;;9.51;84.36;98149.56;4468240;32;20122;-76
2023/10/19 00:41:29;;;;;;;35.25;11.65;;;;;;;9.65;83.95;98148.25;4469444;32;20093;-76
2023/10/19 00:44:10;;;;;;;23.62;10.98;;;;;;;9.63;84.58;98136.28;4469383;32;20081;-76
2023/10/19 00:49:15;;;;;;;22.58;11.18;;;;;;;9.79;86.11;98140.87;4469348;32;20116;-76
2023/10/19 00:52:10;;;;;;;29.85;12.98;;;;;;;9.64;86.07;98140.56;4469236;32;20476;-76
2023/10/19 00:57:09;;;;;;;25.77;12.75;;;;;;;9.54;89.46;98124.94;4469043;32;20450;-76
2023/10/19 00:59:47;;;;;;;28.70;13.05;;;;;;;9.48;92.32;98125.50;4469450;32;20165;-76
2023/10/19 01:02:28;;;;;;;27.45;14.27;;;;;;;9.21;96.57;98121.94;4469359;32;20089;-76
2023/10/19 01:05:06;;;;;;;29.92;13.62;;;;;;;9.19;100.00;98110.78;4467713;32;20155;-76
2023/10/19 01:07:38;;;;;;;27.90;14.95;;;;;;;9.13;100.00;98117.44;4469078;32;20414;-76
2023/10/19 01:10:28;;;;;;;31.12;15.05;;;;;;;9.03;100.00;98112.22;4468199;32;20125;-76
2023/10/19 01:12:55;;;;;;;28.95;15.40;;;;;;;9.00;100.00;98104.69;4469623;32;20455;-76
2023/10/19 01:17:57;;;;;;;33.70;15.88;;;;;;;8.97;100.00;98112.81;4485059;31;20077;-76
2023/10/19 01:25:41;;;;;;;27.60;16.02;;;;;;;8.82;100.00;98099.38;4485014;31;20084;-76
2023/10/19 01:28:10;;;;;;;34.22;16.83;;;;;;;8.88;100.00;98090.16;4477057;31;20093;-76
2023/10/19 01:30:38;;;;;;;32.53;15.90;;;;;;;8.88;100.00;98093.56;4468971;32;20175;-76
2023/10/19 01:33:12;;;;;;;30.67;16.12;;;;;;;8.78;100.00;98086.75;4469084;32;20100;-76
2023/10/19 01:38:34;;;;;;;29.08;16.25;;;;;;;8.62;100.00;98082.94;4468917;32;20505;-76
2023/10/19 01:41:13;;;;;;;29.77;16.70;;;;;;;8.64;100.00;98064.53;4468873;32;20472;-76
2023/10/19 01:43:44;;;;;;;33.75;16.50;;;;;;;8.62;100.00;98067.28;4467596;32;20161;-76
2023/10/19 01:46:13;;;;;;;32.58;17.98;;;;;;;8.55;100.00;98065.37;4469088;32;20472;-76
2023/10/19 01:48:41;;;;;;;41.97;19.00;;;;;;;8.58;100.00;98060.69;4468483;32;20120;-76
2023/10/19 01:51:13;;;;;;;35.40;17.52;;;;;;;8.43;100.00;98057.69;4468826;32;20569;-76
2023/10/19 01:53:44;;;;;;;27.23;15.88;;;;;;;8.44;100.00;98042.87;4469024;32;20088;-76
2023/10/19 01:56:12;;;;;;;33.58;18.05;;;;;;;8.45;100.00;98044.53;4468802;32;20130;-76
2023/10/19 01:58:42;;;;;;;36.83;18.95;;;;;;;8.43;100.00;98051.63;4468939;32;20077;-76
2023/10/19 02:03:43;;;;;;;39.58;19.02;;;;;;;8.47;100.00;98042.59;4468640;32;20140;-76
2023/10/19 02:06:26;;;;;;;35.17;18.15;;;;;;;8.42;100.00;98034.31;4468791;32;20088;-76
2023/10/19 02:09:17;;;;;;;32.67;18.45;;;;;;;8.36;100.00;98027.91;4468834;32;20194;-76
2023/10/19 02:11:46;;;;;;;32.83;18.42;;;;;;;8.41;100.00;98027.47;4468648;32;20106;-76
2023/10/19 02:14:21;;;;;;;40.08;19.83;;;;;;;8.51;100.00;98025.69;4468766;32;20447;-76
2023/10/19 02:16:53;;;;;;;38.88;19.25;;;;;;;8.49;100.00;98030.22;4478512;32;20088;-76
2023/10/19 02:19:21;;;;;;;38.80;20.90;;;;;;;8.59;100.00;98025.78;4484334;32;20107;-76
2023/10/19 02:21:52;;;;;;;34.67;18.37;;;;;;;8.60;100.00;98019.63;4484184;31;20445;-76
2023/10/19 02:24:19;;;;;;;41.75;20.08;;;;;;;8.63;100.00;98021.09;4484016;31;20751;-76
2023/10/19 02:26:51;;;;;;;40.63;20.45;;;;;;;8.43;100.00;98017.72;4484129;31;20101;-76
2023/10/19 02:29:19;;;;;;;38.60;21.58;;;;;;;8.39;100.00;98017.19;4468785;32;20092;-76
2023/10/19 02:31:47;;;;;;;42.20;22.37;;;;;;;8.45;100.00;98005.38;4468266;32;20080;-76
2023/10/19 02:34:15;;;;;;;36.92;20.88;;;;;;;8.43;100.00;97991.59;4468204;32;20424;-76
2023/10/19 02:36:44;;;;;;;36.90;21.37;;;;;;;8.52;100.00;97994.22;4468139;32;20483;-76
2023/10/19 02:39:13;;;;;;;40.90;21.42;;;;;;;8.48;100.00;97986.84;4468127;32;20092;-76
2023/10/19 02:41:43;;;;;;;41.78;23.08;;;;;;;8.45;100.00;97987.13;4468003;32;20175;-76
2023/10/19 02:46:44;;;;;;;41.72;22.25;;;;;;;8.35;100.00;97981.87;4468063;32;20104;-76
2023/10/19 02:49:13;;;;;;;43.90;23.08;;;;;;;8.38;100.00;97968.53;4467939;32;20501;-76
2023/10/19 02:51:45;;;;;;;41.55;22.70;;;;;;;8.35;100.00;97969.66;4467865;32;20089;-76
2023/10/19 02:54:22;;;;;;;46.03;23.75;;;;;;;8.41;100.00;97970.06;4468078;32;20147;-76
2023/10/19 02:56:56;;;;;;;46.92;24.92;;;;;;;8.54;100.00;97970.59;4467959;32;20111;-76
2023/10/19 02:59:28;;;;;;;39.85;21.65;;;;;;;8.40;100.00;97964.00;4468054;32;20538;-76
2023/10/19 03:04:41;;;;;;;45.15;23.52;;;;;;;8.59;100.00;97973.56;4469980;32;20104;-76
2023/10/19 03:07:12;;;;;;;43.40;22.17;;;;;;;8.47;100.00;97957.28;4470011;32;20092;-76
2023/10/19 03:09:39;;;;;;;42.35;22.92;;;;;;;8.62;100.00;97951.59;4470101;32;20112;-76
2023/10/19 03:12:10;;;;;;;44.55;23.35;;;;;;;8.48;100.00;97947.69;4470006;32;20394;-76
2023/10/19 03:14:41;;;;;;;49.42;24.63;;;;;;;8.48;100.00;97952.91;4469850;32;20088;-76
2023/10/19 03:17:10;;;;;;;47.67;24.30;;;;;;;8.46;100.00;97941.75;4482038;32;20104;-76
2023/10/19 03:19:38;;;;;;;49.15;24.83;;;;;;;8.61;100.00;97945.53;4484503;32;20150;-76
2023/10/19 03:22:06;;;;;;;46.90;23.17;;;;;;;8.62;100.00;97936.75;4485459;31;20165;-76
2023/10/19 03:24:43;;;;;;;48.75;25.58;;;;;;;8.57;100.00;97923.31;4485508;32;20088;-76
2023/10/19 03:27:22;;;;;;;47.13;23.90;;;;;;;8.61;100.00;97929.88;4483838;31;20197;-76
2023/10/19 03:29:55;;;;;;;40.22;22.27;;;;;;;8.59;100.00;97928.37;4469765;32;20149;-76
2023/10/19 03:32:26;;;;;;;50.22;24.55;;;;;;;8.40;100.00;97921.44;4469748;32;20064;-76
2023/10/19 03:34:56;;;;;;;49.00;24.13;;;;;;;8.53;100.00;97903.69;4469727;32;20092;-76
2023/10/19 03:37:30;;;;;;;43.53;24.35;;;;;;;8.58;100.00;97904.06;4469553;32;20477;-76
2023/10/19 03:39:58;;;;;;;45.45;23.58;;;;;;;8.52;100.00;97902.03;4469780;32;20363;-76
2023/10/19 03:42:32;;;;;;;47.83;23.52;;;;;;;8.49;100.00;97894.47;4469676;32;20168;-76
2023/10/19 03:45:02;;;;;;;;;;;;;;;8.47;100.00;97894.62;4470381;32;20466;-76
2023/10/19 03:47:38;;;;;;;48.63;22.62;;;;;;;8.52;100.00;97899.41;4469748;32;20360;-76
2023/10/19 03:50:14;;;;;;;39.20;21.52;;;;;;;8.53;100.00;97899.25;4469809;32;20088;-76
2023/10/19 03:52:41;;;;;;;51.78;26.98;;;;;;;8.45;100.00;97890.53;4469551;32;20084;-76
2023/10/19 03:55:14;;;;;;;45.97;24.02;;;;;;;8.35;100.00;97893.16;4468415;32;20456;-76
2023/10/19 03:57:46;;;;;;;50.80;23.15;;;;;;;8.51;100.00;97882.94;4469497;32;20145;-76
2023/10/19 04:00:16;;;;;;;49.67;25.08;;;;;;;8.30;100.00;97885.75;4469532;32;20092;-76
2023/10/19 04:02:46;;;;;;;53.40;25.60;;;;;;;8.53;100.00;97878.38;4469575;32;20092;-76
2023/10/19 04:05:21;;;;;;;43.75;22.52;;;;;;;8.35;100.00;97877.50;4469577;32;20127;-76
2023/10/19 04:07:56;;;;;;;52.75;27.33;;;;;;;8.24;100.00;97875.09;4483024;32;20119;-76
2023/10/19 04:10:30;;;;;;;52.72;25.62;;;;;;;8.15;100.00;97867.16;4484926;31;20146;-75
2023/10/19 04:13:01;;;;;;;47.20;25.42;;;;;;;8.09;100.00;97857.28;4485048;31;20142;-76
2023/10/19 04:15:35;;;;;;;41.58;22.95;;;;;;;8.29;100.00;97859.81;4483804;32;20494;-76
2023/10/19 04:18:10;;;;;;;44.53;22.52;;;;;;;8.31;100.00;97848.28;4468266;32;20113;-76
2023/10/19 04:23:15;;;;;;;53.60;26.23;;;;;;;8.27;100.00;97843.50;4479120;32;36020;-76
2023/10/19 04:25:45;;;;;;;45.63;24.30;;;;;;;8.21;100.00;97834.44;4485083;31;20433;-78
2023/10/19 04:28:14;;;;;;;47.15;23.52;;;;;;;7.99;100.00;97841.69;4476709;32;20123;-78
2023/10/19 04:30:41;;;;;;;55.22;24.83;;;;;;;8.14;100.00;97835.97;4469417;32;20100;-79
2023/10/19 04:33:12;;;;;;;60.25;23.08;;;;;;;8.21;100.00;97825.81;4468838;32;20096;-79
2023/10/19 04:35:41;;;;;;;53.33;23.38;;;;;;;8.18;100.00;97821.69;4468389;32;20123;-78
2023/10/19 04:38:09;;;;;;;46.42;24.58;;;;;;;8.35;100.00;97830.53;4468415;32;20556;-79
2023/10/19 04:40:36;;;;;;;45.65;22.92;;;;;;;8.49;100.00;97827.47;4468205;32;20093;-80
2023/10/19 04:43:06;;;;;;;54.88;26.33;;;;;;;8.37;100.00;97817.31;4468917;32;20480;-78
2023/10/19 04:45:33;;;;;;;56.33;27.33;;;;;;;8.19;100.00;97823.34;4469444;32;20093;-79
2023/10/19 04:48:04;;;;;;;53.25;23.83;;;;;;;8.20;100.00;97816.31;4468784;32;20088;-80
2023/10/19 04:50:31;;;;;;;52.00;23.20;;;;;;;8.37;100.00;97817.31;4468305;32;20156;-80
2023/10/19 04:52:59;;;;;;;46.78;22.73;;;;;;;8.43;100.00;97811.50;4467648;32;20157;-80
2023/10/19 04:55:27;;;;;;;48.08;21.10;;;;;;;8.44;100.00;97814.00;4468062;32;20111;-80
2023/10/19 04:57:54;;;;;;;52.03;23.75;;;;;;;8.46;100.00;97816.47;4468049;32;20100;-80
2023/10/19 05:00:24;;;;;;;43.38;22.00;;;;;;;8.53;100.00;97807.09;4472378;32;20092;-78
2023/10/19 05:02:51;;;;;;;41.88;22.25;;;;;;;8.56;100.00;97809.41;4486767;31;20206;-78
2023/10/19 05:05:19;;;;;;;45.90;22.80;;;;;;;8.69;100.00;97807.25;4493620;31;20221;-80
2023/10/19 05:07:49;;;;;;;52.47;23.55;;;;;;;8.64;100.00;97804.25;4480460;31;20130;-79
2023/10/19 05:10:17;;;;;;;44.72;20.55;;;;;;;8.75;100.00;97808.47;4482073;31;20092;-79
2023/10/19 05:12:44;;;;;;;45.40;22.25;;;;;;;8.88;100.00;97805.44;4488480;31;20126;-79
2023/10/19 05:15:11;;;;;;;39.85;19.80;;;;;;;8.83;100.00;97807.72;4483989;32;20119;-79
2023/10/19 05:17:38;;;;;;;40.67;21.65;;;;;;;8.94;100.00;97804.03;4482925;31;20101;-79
2023/10/19 05:20:07;;;;;;;48.70;20.70;;;;;;;8.84;100.00;97809.31;4482802;31;20088;-79
2023/10/19 05:22:34;;;;;;;44.20;21.30;;;;;;;8.78;100.00;97807.31;4484125;31;20477;-80
2023/10/19 05:25:04;;;;;;;41.85;21.40;;;;;;;9.01;100.00;97813.72;4483875;31;20118;-80
2023/10/19 05:27:31;;;;;;;40.80;19.90;;;;;;;8.94;100.00;97814.50;4483032;31;20092;-79
2023/10/19 05:30:00;;;;;;;38.65;20.00;;;;;;;8.96;100.00;97802.94;4482828;32;20504;-79
2023/10/19 05:32:28;;;;;;;42.10;21.77;;;;;;;9.01;100.00;97808.50;4493053;31;20152;-79
2023/10/19 05:34:57;;;;;;;41.05;21.15;;;;;;;8.95;100.00;97805.66;4487174;31;21186;-77
2023/10/19 05:37:29;;;;;;;44.75;19.85;;;;;;;9.01;100.00;97811.13;4486198;31;20085;-77
2023/10/19 05:39:56;;;;;;;40.90;21.48;;;;;;;8.90;100.00;97807.91;4476701;31;20105;-77
2023/10/19 05:42:23;;;;;;;37.15;19.60;;;;;;;9.06;100.00;97808.06;4481498;31;20569;-78
2023/10/19 05:44:51;;;;;;;41.17;20.83;;;;;;;8.66;100.00;97798.87;4480417;31;20146;-77
2023/10/19 05:47:18;;;;;;;41.85;21.10;;;;;;;8.72;100.00;97802.69;4480959;31;20446;-77
2023/10/19 05:49:46;;;;;;;39.22;20.45;;;;;;;8.96;100.00;97792.47;4482127;31;20152;-77
2023/10/19 05:52:14;;;;;;;44.33;21.37;;;;;;;8.86;100.00;97799.56;4479511;31;20104;-77
2023/10/19 05:54:41;;;;;;;35.80;18.98;;;;;;;8.86;100.00;97804.78;4474483;31;20129;-76
2023/10/19 05:57:09;;;;;;;42.62;18.92;;;;;;;8.91;100.00;97806.97;4479157;32;20096;-78
2023/10/19 05:59:37;;;;;;;38.83;19.25;;;;;;;8.90;100.00;97797.47;4482809;32;20096;-79
2023/10/19 06:02:07;;;;;;;40.70;21.60;;;;;;;8.98;100.00;97803.59;4486434;31;20083;-77
2023/10/19 06:04:35;;;;;;;36.70;18.77;;;;;;;8.93;100.00;97787.53;4484237;31;20143;-78
2023/10/19 06:07:05;;;;;;;37.85;19.30;;;;;;;8.94;100.00;97794.41;4477802;32;20143;-77
2023/10/19 06:09:33;;;;;;;38.53;19.10;;;;;;;9.09;100.00;97793.88;4472723;31;20147;-81
2023/10/19 06:12:01;;;;;;;42.00;20.17;;;;;;;9.26;100.00;97803.47;4464587;32;20140;-81
2023/10/19 06:14:31;;;;;;;39.75;20.05;;;;;;;9.04;100.00;97797.75;4464931;32;20931;-82
2023/10/19 06:16:58;;;;;;;40.17;21.20;;;;;;;9.00;100.00;97793.00;4468638;32;20100;-83
2023/10/19 06:19:26;;;;;;;45.65;21.67;;;;;;;8.98;100.00;97798.37;4466395;32;20105;-81
2023/10/19 06:21:54;;;;;;;45.95;21.85;;;;;;;8.88;100.00;97798.44;4466709;32;20153;-77
2023/10/19 06:24:21;;;;;;;45.28;20.23;;;;;;;8.89;100.00;97781.00;4462744;32;20123;-79
2023/10/19 06:26:49;;;;;;;39.13;19.83;;;;;;;9.00;100.00;97782.53;4468834;31;20100;-78
2023/10/19 06:29:16;;;;;;;40.28;19.17;;;;;;;9.09;100.00;97786.03;4469740;31;20104;-80
2023/10/19 06:31:43;;;;;;;36.78;19.05;;;;;;;9.23;100.00;97775.03;4470689;32;20863;-79
2023/10/19 06:34:11;;;;;;;41.50;18.65;;;;;;;9.31;100.00;97775.09;4470266;32;20101;-79
2023/10/19 06:36:38;;;;;;;36.47;17.87;;;;;;;9.39;100.00;97779.56;4470326;32;20084;-82
2023/10/19 06:39:07;;;;;;;34.65;18.48;;;;;;;9.44;100.00;97785.13;4470221;32;20425;-80
2023/10/19 06:41:35;;;;;;;37.10;18.98;;;;;;;9.64;100.00;97796.19;4466228;32;20100;-79
2023/10/19 06:44:02;;;;;;;32.50;17.12;;;;;;;9.62;100.00;97792.09;4468378;32;20131;-77
2023/10/19 06:46:31;;;;;;;33.20;17.98;;;;;;;9.63;100.00;97778.88;4469725;32;20093;-77
2023/10/19 06:49:00;;;;;;;38.40;18.58;;;;;;;9.58;100.00;97776.72;4473955;32;20112;-78
2023/10/19 06:51:29;;;;;;;30.05;17.45;;;;;;;9.61;100.00;97767.72;4473937;31;20123;-80
2023/10/19 06:53:57;;;;;;;34.65;18.27;;;;;;;9.58;100.00;97774.09;4471368;32;21772;-77
2023/10/19 06:56:26;;;;;;;35.83;17.80;;;;;;;9.70;100.00;97773.81;4471593;32;20101;-78
2023/10/19 06:58:53;;;;;;;33.88;16.55;;;;;;;9.74;100.00;97780.38;4473888;32;20089;-77
2023/10/19 07:01:25;;;;;;;36.42;18.35;;;;;;;9.56;100.00;97780.47;4470158;32;20104;-79
2023/10/19 07:03:53;;;;;;;37.72;17.85;;;;;;;9.57;100.00;97779.50;4473358;32;20092;-79
2023/10/19 07:06:21;;;;;;;38.47;19.70;;;;;;;9.59;100.00;97767.87;4477341;32;20157;-79
2023/10/19 07:08:48;;;;;;;38.20;19.42;;;;;;;9.58;100.00;97775.87;4472095;32;20601;-78
2023/10/19 07:11:16;;;;;;;34.35;18.30;;;;;;;9.55;100.00;97770.97;4472002;32;20101;-78
2023/10/19 07:13:43;;;;;;;35.80;18.12;;;;;;;9.55;100.00;97760.50;4470276;31;20162;-79
2023/10/19 07:16:13;;;;;;;37.10;18.73;;;;;;;9.51;100.00;97757.41;4469168;32;20109;-84
2023/10/19 07:18:40;;;;;;;33.33;17.40;;;;;;;9.59;100.00;97761.84;4472566;32;20658;-82
2023/10/19 07:21:09;;;;;;;32.88;15.70;;;;;;;9.48;100.00;97760.31;4472269;32;20442;-84
2023/10/19 07:23:40;;;;;;;32.55;16.48;;;;;;;9.57;100.00;97753.34;4473639;32;20112;-84
2023/10/19 07:26:08;;;;;;;37.65;16.62;;;;;;;9.70;100.00;97758.13;4474647;32;20093;-80
2023/10/19 07:28:36;;;;;;;33.78;17.77;;;;;;;9.69;100.00;97757.31;4477542;31;20096;-82
2023/10/19 07:31:12;;;;;;;32.38;16.45;;;;;;;9.56;100.00;97749.09;4472907;32;20783;-86
2023/10/19 07:33:45;;;;;;;31.80;16.95;;;;;;;9.53;100.00;97744.97;4473694;32;20092;-80
2023/10/19 07:36:18;;;;;;;34.85;17.65;;;;;;;9.61;100.00;97744.19;4476482;31;20142;-84
2023/10/19 07:38:47;;;;;;;;;;;;;;;9.73;100.00;97742.94;4469634;32;20096;-81
2023/10/19 07:41:16;;;;;;;29.25;16.58;;;;;;;9.93;100.00;97740.06;4467920;32;20368;-81
2023/10/19 07:43:44;;;;;;;27.75;16.23;;;;;;;9.93;100.00;97737.47;4471537;32;20134;-83
2023/10/19 07:46:11;;;;;;;30.77;17.05;;;;;;;9.96;100.00;97739.75;4470228;32;20543;-85
2023/10/19 07:48:39;;;;;;;35.58;17.45;;;;;;;10.11;100.00;97735.56;4473689;31;20104;-77
2023/10/19 07:51:08;;;;;;;31.55;16.58;;;;;;;9.96;100.00;97734.53;4474882;32;20134;-77
2023/10/19 07:53:36;;;;;;;31.50;17.12;;;;;;;10.20;100.00;97725.09;4473103;32;20180;-76
2023/10/19 07:56:03;;;;;;;28.42;15.40;;;;;;;10.15;100.00;97719.53;4469147;31;20484;-77
2023/10/19 07:58:31;;;;;;;27.77;16.25;;;;;;;10.30;100.00;97718.75;4470222;32;20112;-76
2023/10/19 08:00:59;;;;;;;25.23;15.15;;;;;;;10.39;100.00;97711.75;4469900;32;20093;-80
2023/10/19 08:03:26;;;;;;;31.10;17.30;;;;;;;10.21;100.00;97709.25;4466909;32;20174;-77
2023/10/19 08:05:54;;;;;;;28.75;14.95;;;;;;;10.13;100.00;97710.03;4472615;32;20091;-81
2023/10/19 08:08:24;;;;;;;31.73;15.77;;;;;;;10.34;100.00;97711.44;4471130;32;20085;-81
2023/10/19 08:10:52;;;;;;;29.08;15.82;;;;;;;10.42;100.00;97706.19;4471756;32;20442;-80
2023/10/19 08:13:19;;;;;;;26.60;15.88;;;;;;;10.58;100.00;97704.56;4474550;32;20108;-82
2023/10/19 08:15:46;;;;;;;30.40;16.23;;;;;;;10.66;100.00;97701.97;4469249;32;20092;-81
2023/10/19 08:18:14;;;;;;;28.98;14.48;;;;;;;10.88;100.00;97699.66;4468844;31;20120;-79
2023/10/19 08:20:49;;;;;;;30.23;15.82;;;;;;;10.80;100.00;97698.66;4469021;31;20517;-77
2023/10/19 08:23:23;;;;;;;24.48;14.63;;;;;;;10.92;100.00;97703.59;4471960;31;20107;-78
2023/10/19 08:25:50;;;;;;;26.98;16.02;;;;;;;10.74;100.00;97696.72;4473599;32;20139;-79
2023/10/19 08:28:24;;;;;;;27.17;15.23;;;;;;;10.97;100.00;97702.09;4472289;32;20100;-81
2023/10/19 08:31:00;;;;;;;30.45;14.95;;;;;;;10.97;100.00;97690.78;4473411;32;20156;-79
2023/10/19 08:33:42;;;;;;;26.85;14.93;;;;;;;11.11;100.00;97684.87;4472144;31;20104;-75
2023/10/19 08:36:19;;;;;;;27.80;14.50;;;;;;;11.20;100.00;97683.03;4471002;32;20462;-78
2023/10/19 08:38:47;;;;;;;26.55;15.07;;;;;;;11.35;100.00;97680.53;4473702;31;20115;-79
2023/10/19 08:41:20;;;;;;;27.47;15.13;;;;;;;11.47;100.00;97679.19;4472954;32;20430;-78
2023/10/19 08:43:50;;;;;;;24.83;14.07;;;;;;;11.25;100.00;97675.50;4475079;32;20478;-84
2023/10/19 08:46:18;;;;;;;25.25;14.60;;;;;;;11.18;100.00;97664.84;4472783;31;20544;-86
2023/10/19 08:48:46;;;;;;;27.48;14.93;;;;;;;11.20;100.00;97672.56;4468992;32;20127;-81
2023/10/19 08:51:16;;;;;;;26.45;14.82;;;;;;;11.13;100.00;97654.06;4469414;32;20122;-78
2023/10/19 08:53:44;;;;;;;29.33;15.43;;;;;;;11.35;100.00;97656.94;4469972;32;20108;-81
2023/10/19 08:56:12;;;;;;;29.80;15.18;;;;;;;11.48;100.00;97659.03;4469580;31;20112;-79
2023/10/19 08:58:40;;;;;;;30.37;16.08;;;;;;;11.74;100.00;97664.00;4470190;32;20140;-76
2023/10/19 09:01:09;;;;;;;26.73;14.43;;;;;;;11.89;100.00;97654.37;4474050;32;20110;-79
2023/10/19 09:03:38;;;;;;;26.98;14.85;;;;;;;12.00;100.00;97652.41;4468543;32;20155;-79
2023/10/19 09:06:06;;;;;;;24.08;14.90;;;;;;;12.20;100.00;97664.09;4472536;32;20092;-81
2023/10/19 09:08:39;;;;;;;26.60;14.73;;;;;;;12.53;100.00;97663.03;4470368;32;20092;-81
2023/10/19 09:11:08;;;;;;;23.33;13.17;;;;;;;12.41;100.00;97660.00;4468013;32;20147;-76
2023/10/19 09:13:46;;;;;;;24.65;12.95;;;;;;;12.40;100.00;97648.69;4475325;31;20687;-79
2023/10/19 09:16:17;;;;;;;27.75;14.82;;;;;;;12.43;100.00;97650.94;4467924;32;20100;-79
2023/10/19 09:18:46;;;;;;;23.23;13.98;;;;;;;12.56;100.00;97642.44;4469119;32;20114;-76
2023/10/19 09:21:25;;;;;;;28.40;13.95;;;;;;;12.45;100.00;97645.50;4472043;32;20165;-80
2023/10/19 09:24:04;;;;;;;27.77;15.50;;;;;;;12.83;100.00;97663.91;4469272;32;20100;-81
2023/10/19 09:26:32;;;;;;;28.10;15.07;;;;;;;12.75;100.00;97650.84;4474283;32;20108;-81
2023/10/19 09:29:00;;;;;;;25.25;15.45;;;;;;;13.14;100.00;97662.94;4470314;32;20100;-79
2023/10/19 09:31:29;;;;;;;22.92;13.90;;;;;;;13.27;100.00;97663.13;4470072;31;20514;-79
2023/10/19 09:33:58;;;;;;;24.58;14.60;;;;;;;13.60;100.00;97665.41;4472469;31;20459;-80
2023/10/19 09:36:27;;;;;;;27.62;14.95;;;;;;;13.21;100.00;97650.69;4469888;32;20135;-81
2023/10/19 09:38:57;;;;;;;23.52;13.82;;;;;;;13.31;100.00;97658.31;4473761;32;20092;-77
2023/10/19 09:41:28;;;;;;;22.87;13.50;;;;;;;13.19;100.00;97650.06;4473441;32;20165;-77
2023/10/19 09:44:04;;;;;;;26.37;14.65;;;;;;;13.38;100.00;97653.16;4475402;32;20194;-78
2023/10/19 09:46:35;;;;;;;26.12;14.05;;;;;;;13.35;100.00;97640.38;4467349;32;20793;-79
2023/10/19 09:49:04;;;;;;;24.87;14.43;;;;;;;13.61;100.00;97638.09;4473052;32;20254;-86
2023/10/19 09:51:32;;;;;;;26.15;14.48;;;;;;;13.75;100.00;97630.34;4470193;32;20127;-78
2023/10/19 09:54:59;;;;;;;25.88;14.75;;;;;;;14.28;100.00;97630.09;4471594;32;20089;-77
2023/10/19 09:57:53;;;;;;;28.25;15.93;;;;;;;14.28;100.00;97615.06;4425856;32;20149;-80
2023/10/19 10:00:24;;;;;;;25.20;14.85;;;;;;;14.15;100.00;97614.94;4420435;32;20097;-80
2023/10/19 10:02:55;;;;;;;24.10;13.82;;;;;;;14.26;100.00;97611.00;4443358;32;20214;-81
2023/10/19 10:05:38;;;;;;;26.98;14.98;;;;;;;14.30;100.00;97586.72;4445277;32;20663;-81
2023/10/19 10:08:18;;;;;;;28.90;14.63;;;;;;;14.18;100.00;97590.88;4445070;32;20101;-82
2023/10/19 10:10:49;;;;;;;25.37;14.52;;;;;;;14.07;100.00;97597.47;4427004;32;20115;-80
2023/10/19 10:13:24;;;;;;;23.80;14.40;;;;;;;13.92;100.00;97586.97;4432941;32;20105;-81
2023/10/19 10:15:54;;;;;;;24.15;13.85;;;;;;;14.08;100.00;97582.47;4432803;32;20161;-79
2023/10/19 10:18:35;;;;;;;24.45;13.50;;;;;;;14.23;100.00;97566.59;4420619;32;20117;-84
2023/10/19 10:21:20;;;;;;;23.38;14.43;;;;;;;14.13;100.00;97561.66;4434800;32;20109;-81
2023/10/19 10:24:00;;;;;;;29.45;14.00;;;;;;;14.19;100.00;97563.53;4419252;32;20132;-85
2023/10/19 10:26:35;;;;;;;25.90;14.07;;;;;;;14.27;100.00;97560.75;4426109;32;20124;-82
2023/10/19 10:29:20;;;;;;;22.42;13.07;;;;;;;14.41;100.00;97553.75;4428188;32;20452;-80
2023/10/19 10:31:49;;;;;;;30.60;14.60;;;;;;;14.42;100.00;97552.75;4463973;32;20111;-83
2023/10/19 10:34:49;;;;;;;25.27;14.40;;;;;;;14.43;100.00;97558.84;4474492;31;20076;-79
2023/10/19 10:37:17;;;;;;;25.33;12.60;;;;;;;14.34;100.00;97537.91;4477641;32;20517;-78
2023/10/19 10:39:45;;;;;;;21.52;12.90;;;;;;;14.18;100.00;97530.28;4471284;31;20100;-80
2023/10/19 10:42:14;;;;;;;24.52;13.20;;;;;;;14.38;100.00;97531.25;4473176;32;20107;-79
2023/10/19 10:44:43;;;;;;;27.52;14.55;;;;;;;14.47;100.00;97534.53;4476089;32;20139;-80
2023/10/19 10:47:12;;;;;;;28.92;15.73;;;;;;;14.78;100.00;97540.47;4480103;31;20093;-79
2023/10/19 10:49:57;;;;;;;28.23;15.40;;;;;;;14.87;100.00;97528.75;4479866;32;20172;-78
2023/10/19 10:52:33;;;;;;;26.62;16.58;;;;;;;14.63;100.00;97511.59;4478242;31;20088;-79
2023/10/19 10:55:12;;;;;;;28.45;16.60;;;;;;;14.79;100.00;97518.34;4477060;32;20640;-79
2023/10/19 10:57:42;;;;;;;24.83;15.48;;;;;;;14.63;100.00;97517.66;4479044;32;20122;-82
2023/10/19 11:00:18;;;;;;;33.75;16.02;;;;;;;14.73;100.00;97515.50;4479582;31;20143;-81
2023/10/19 11:03:01;;;;;;;27.65;15.60;;;;;;;15.25;100.00;97520.38;4477320;32;20096;-83
2023/10/19 11:05:29;;;;;;;30.80;16.05;;;;;;;15.12;100.00;97509.78;4478113;32;20118;-80
2023/10/19 11:08:13;;;;;;;24.42;14.43;;;;;;;15.13;100.00;97512.22;4478160;32;20096;-80
2023/10/19 11:10:43;;;;;;;25.45;14.45;;;;;;;15.36;100.00;97506.59;4476442;32;20115;-82
2023/10/19 11:13:13;;;;;;;24.02;13.23;;;;;;;15.52;100.00;97494.06;4473960;32;20646;-81
2023/10/19 11:15:53;;;;;;;22.13;13.13;;;;;;;15.93;100.00;97499.22;4474156;32;20080;-81
2023/10/19 11:18:37;;;;;;;22.27;12.82;;;;;;;16.16;100.00;97491.91;4469853;32;20135;-81
2023/10/19 11:21:09;;;;;;;27.15;14.40;;;;;;;16.19;100.00;97494.16;4472975;32;20127;-81
2023/10/19 11:23:43;;;;;;;23.92;14.82;;;;;;;16.05;100.00;97475.66;4476261;32;20092;-79
2023/10/19 11:26:12;;;;;;;23.17;13.88;;;;;;;16.19;100.00;97481.75;4472962;31;20906;-79
2023/10/19 11:28:43;;;;;;;27.67;13.77;;;;;;;16.28;100.00;97487.63;4474278;32;20126;-78
2023/10/19 11:31:43;;;;;;;24.15;13.73;;;;;;;16.43;100.00;97480.28;4480573;31;20108;-81
2023/10/19 11:34:18;;;;;;;24.70;13.18;;;;;;;16.19;100.00;97479.09;4472367;31;20112;-76
2023/10/19 11:36:46;;;;;;;20.10;13.60;;;;;;;16.40;100.00;97472.75;4474300;31;20088;-80
2023/10/19 11:39:15;;;;;;;25.67;12.98;;;;;;;16.47;100.00;97462.16;4480879;31;20138;-78
2023/10/19 11:41:43;;;;;;;30.17;15.70;;;;;;;16.58;100.00;97479.22;4478148;31;20156;-79
2023/10/19 11:44:10;;;;;;;24.05;14.68;;;;;;;16.36;99.96;97470.75;4473045;31;20234;-78
2023/10/19 11:46:39;;;;;;;24.45;15.07;;;;;;;15.88;100.00;97461.22;4471923;31;20105;-80
2023/10/19 11:49:09;;;;;;;26.87;15.18;;;;;;;15.45;100.00;97457.09;4474302;31;20426;-79
2023/10/19 11:51:39;;;;;;;27.95;15.20;;;;;;;15.50;100.00;97459.94;4474617;32;20104;-80
2023/10/19 11:54:07;;;;;;;25.25;14.00;;;;;;;15.63;100.00;97464.44;4471271;32;20101;-80
2023/10/19 11:56:35;;;;;;;25.65;14.98;;;;;;;15.64;100.00;97455.50;4479584;32;20096;-79
2023/10/19 11:59:04;;;;;;;34.00;16.10;;;;;;;15.71;100.00;97460.78;4471842;32;20104;-80
2023/10/19 12:01:32;;;;;;;24.70;14.10;;;;;;;15.72;100.00;97450.03;4475073;31;20123;-79